sensor_id;sensor_type;location;lat;lon;timestamp;pressure;altitude;pressure_sealevel;temperature;humidity
75692;BME280;64307;52.508;6.090;2023-03-01T00:38:45;103285.66;;;0.19;84.05
75692;BME280;64307;52.508;6.090;2023-03-01T00:41:14;103269.22;;;0.14;84.47
75692;BME280;64307;52.508;6.090;2023-03-01T00:43:40;103283.75;;;0.20;84.55
75692;BME280;64307;52.508;6.090;2023-03-01T00:46:18;103285.13;;;0.17;85.13
75692;BME280;64307;52.508;6.090;2023-03-01T00:48:44;103285.66;;;0.19;85.10
75692;BME280;64307;52.508;6.090;2023-03-01T00:51:14;103277.72;;;0.18;85.26
75692;BME280;64307;52.508;6.090;2023-03-01T00:53:40;103269.22;;;0.14;85.16
75692;BME280;64307;52.508;6.090;2023-03-01T00:56:07;103269.50;;;0.18;85.43
75692;BME280;64307;52.508;6.090;2023-03-01T00:58:34;103270.91;;;0.20;84.99
75692;BME280;64307;52.508;6.090;2023-03-01T01:00:59;103265.94;;;0.17;85.61
75692;BME280;64307;52.508;6.090;2023-03-01T01:03:25;103264.53;;;0.10;86.34
75692;BME280;64307;52.508;6.090;2023-03-01T01:05:54;103272.53;;;0.16;87.02
75692;BME280;64307;52.508;6.090;2023-03-01T01:08:20;103267.03;;;0.16;86.43
75692;BME280;64307;52.508;6.090;2023-03-01T01:10:46;103263.72;;;0.09;86.48
75692;BME280;64307;52.508;6.090;2023-03-01T01:13:12;103266.72;;;0.08;87.71
75692;BME280;64307;52.508;6.090;2023-03-01T01:15:38;103271.66;;;0.11;88.82
75692;BME280;64307;52.508;6.090;2023-03-01T01:18:04;103267.84;;;0.12;88.54
75692;BME280;64307;52.508;6.090;2023-03-01T01:20:29;103265.94;;;0.12;88.28
75692;BME280;64307;52.508;6.090;2023-03-01T01:22:54;103262.09;;;0.08;88.79
75692;BME280;64307;52.508;6.090;2023-03-01T01:25:20;103260.47;;;0.17;89.30
75692;BME280;64307;52.508;6.090;2023-03-01T01:27:46;103258.84;;;0.21;89.62
75692;BME280;64307;52.508;6.090;2023-03-01T01:30:12;103250.59;;;0.16;89.40
75692;BME280;64307;52.508;6.090;2023-03-01T01:32:37;103260.75;;;0.16;89.63
75692;BME280;64307;52.508;6.090;2023-03-01T01:35:03;103250.31;;;0.13;89.50
75692;BME280;64307;52.508;6.090;2023-03-01T01:37:28;103255.53;;;0.19;89.85
75692;BME280;64307;52.508;6.090;2023-03-01T01:40:00;103249.50;;;0.17;90.17
75692;BME280;64307;52.508;6.090;2023-03-01T01:42:26;103247.59;;;0.18;90.67
75692;BME280;64307;52.508;6.090;2023-03-01T01:45:28;103244.31;;;0.21;91.01
75692;BME280;64307;52.508;6.090;2023-03-01T01:47:57;103241.00;;;0.19;90.91
75692;BME280;64307;52.508;6.090;2023-03-01T01:50:23;103235.28;;;0.20;91.05
75692;BME280;64307;52.508;6.090;2023-03-01T01:52:51;103229.81;;;0.20;91.63
75692;BME280;64307;52.508;6.090;2023-03-01T01:55:21;103240.22;;;0.23;92.42
75692;BME280;64307;52.508;6.090;2023-03-01T01:57:52;103238.34;;;0.29;92.72
75692;BME280;64307;52.508;6.090;2023-03-01T02:00:24;103238.06;;;0.35;92.70
75692;BME280;64307;52.508;6.090;2023-03-01T02:02:52;103233.97;;;0.43;92.72
75692;BME280;64307;52.508;6.090;2023-03-01T02:05:33;103227.91;;;0.36;93.22
75692;BME280;64307;52.508;6.090;2023-03-01T02:08:01;103219.97;;;0.34;93.43
75692;BME280;64307;52.508;6.090;2023-03-01T02:10:27;103226.81;;;0.32;94.31
75692;BME280;64307;52.508;6.090;2023-03-01T02:12:53;103223.53;;;0.30;94.68
75692;BME280;64307;52.508;6.090;2023-03-01T02:15:19;103217.50;;;0.33;94.30
75692;BME280;64307;52.508;6.090;2023-03-01T02:17:44;103212.84;;;0.38;94.84
75692;BME280;64307;52.508;6.090;2023-03-01T02:20:27;103218.63;;;0.37;94.51
75692;BME280;64307;52.508;6.090;2023-03-01T02:22:58;103209.00;;;0.29;95.17
75692;BME280;64307;52.508;6.090;2023-03-01T02:25:59;103222.13;;;0.22;95.13
75692;BME280;64307;52.508;6.090;2023-03-01T02:28:32;103225.97;;;0.26;95.43
75692;BME280;64307;52.508;6.090;2023-03-01T02:30:58;103222.13;;;0.27;95.89
75692;BME280;64307;52.508;6.090;2023-03-01T02:33:42;103220.22;;;0.28;95.61
75692;BME280;64307;52.508;6.090;2023-03-01T02:36:10;103224.34;;;0.30;96.50
75692;BME280;64307;52.508;6.090;2023-03-01T02:38:41;103217.22;;;0.29;97.20
75692;BME280;64307;52.508;6.090;2023-03-01T02:41:07;103215.56;;;0.33;96.90
75692;BME280;64307;52.508;6.090;2023-03-01T02:43:34;103208.16;;;0.24;97.00
75692;BME280;64307;52.508;6.090;2023-03-01T02:46:06;103213.09;;;0.22;97.48
75692;BME280;64307;52.508;6.090;2023-03-01T02:48:54;103203.22;;;0.16;97.42
75692;BME280;64307;52.508;6.090;2023-03-01T02:51:56;103190.88;;;0.08;97.21
75692;BME280;64307;52.508;6.090;2023-03-01T02:54:33;103192.50;;;0.04;96.42
75692;BME280;64307;52.508;6.090;2023-03-01T02:57:02;103189.44;;;-0.05;96.22
75692;BME280;64307;52.508;6.090;2023-03-01T02:59:31;103181.47;;;-0.06;96.16
75692;BME280;64307;52.508;6.090;2023-03-01T03:02:04;103183.97;;;-0.05;95.91
75692;BME280;64307;52.508;6.090;2023-03-01T03:04:31;103187.50;;;-0.09;95.69
75692;BME280;64307;52.508;6.090;2023-03-01T03:06:57;103186.94;;;-0.11;96.60
75692;BME280;64307;52.508;6.090;2023-03-01T03:09:22;103172.16;;;-0.15;97.74
75692;BME280;64307;52.508;6.090;2023-03-01T03:11:48;103180.38;;;-0.10;97.13
75692;BME280;64307;52.508;6.090;2023-03-01T03:14:14;103177.59;;;-0.20;96.35
75692;BME280;64307;52.508;6.090;2023-03-01T03:16:49;103180.88;;;-0.23;97.38
75692;BME280;64307;52.508;6.090;2023-03-01T03:19:15;103176.25;;;-0.18;96.19
75692;BME280;64307;52.508;6.090;2023-03-01T03:21:41;103177.59;;;-0.25;95.84
75692;BME280;64307;52.508;6.090;2023-03-01T03:24:07;103171.56;;;-0.22;95.35
75692;BME280;64307;52.508;6.090;2023-03-01T03:26:33;103178.41;;;-0.25;95.29
75692;BME280;64307;52.508;6.090;2023-03-01T03:28:58;103166.59;;;-0.35;95.61
75692;BME280;64307;52.508;6.090;2023-03-01T03:31:23;103161.63;;;-0.38;95.31
75692;BME280;64307;52.508;6.090;2023-03-01T03:33:49;103167.13;;;-0.38;95.36
75692;BME280;64307;52.508;6.090;2023-03-01T03:36:16;103161.13;;;-0.35;94.74
75692;BME280;64307;52.508;6.090;2023-03-01T03:38:43;103153.94;;;-0.46;94.49
75692;BME280;64307;52.508;6.090;2023-03-01T03:41:08;103166.28;;;-0.39;94.73
75692;BME280;64307;52.508;6.090;2023-03-01T03:43:36;103158.84;;;-0.48;95.83
75692;BME280;64307;52.508;6.090;2023-03-01T03:46:03;103163.00;;;-0.41;95.78
75692;BME280;64307;52.508;6.090;2023-03-01T03:48:32;103160.44;;;-0.62;94.95
75692;BME280;64307;52.508;6.090;2023-03-01T03:50:58;103168.06;;;-0.64;95.42
75692;BME280;64307;52.508;6.090;2023-03-01T03:53:25;103175.78;;;-0.56;95.40
75692;BME280;64307;52.508;6.090;2023-03-01T03:55:52;103176.31;;;-0.59;95.16
75692;BME280;64307;52.508;6.090;2023-03-01T03:58:19;103173.00;;;-0.61;95.51
75692;BME280;64307;52.508;6.090;2023-03-01T04:00:46;103166.41;;;-0.65;95.03
75692;BME280;64307;52.508;6.090;2023-03-01T04:03:14;103168.63;;;-0.62;94.83
75692;BME280;64307;52.508;6.090;2023-03-01T04:05:41;103172.16;;;-0.67;94.95
75692;BME280;64307;52.508;6.090;2023-03-01T04:08:07;103166.69;;;-0.67;94.74
75692;BME280;64307;52.508;6.090;2023-03-01T04:10:38;103175.50;;;-0.60;94.95
75692;BME280;64307;52.508;6.090;2023-03-01T04:13:05;103181.78;;;-0.59;94.62
75692;BME280;64307;52.508;6.090;2023-03-01T04:15:30;103178.75;;;-0.63;94.73
75692;BME280;64307;52.508;6.090;2023-03-01T04:17:59;103169.72;;;-0.63;94.87
75692;BME280;64307;52.508;6.090;2023-03-01T04:20:28;103165.31;;;-0.69;94.34
75692;BME280;64307;52.508;6.090;2023-03-01T04:22:58;103173.50;;;-0.74;94.79
75692;BME280;64307;52.508;6.090;2023-03-01T04:25:25;103178.47;;;-0.66;95.03
75692;BME280;64307;52.508;6.090;2023-03-01T04:27:51;103178.41;;;-0.71;94.60
75692;BME280;64307;52.508;6.090;2023-03-01T04:30:16;103171.31;;;-0.67;94.70
75692;BME280;64307;52.508;6.090;2023-03-01T04:32:41;103170.53;;;-0.68;94.34
75692;BME280;64307;52.508;6.090;2023-03-01T04:35:07;103170.53;;;-0.68;95.96
75692;BME280;64307;52.508;6.090;2023-03-01T04:37:33;103164.19;;;-0.73;95.44
75692;BME280;64307;52.508;6.090;2023-03-01T04:40:02;103167.53;;;-0.66;95.34
75692;BME280;64307;52.508;6.090;2023-03-01T04:42:41;103163.09;;;-0.72;95.23
75692;BME280;64307;52.508;6.090;2023-03-01T04:45:08;103159.53;;;-0.73;94.81
75692;BME280;64307;52.508;6.090;2023-03-01T04:47:39;103151.63;;;-0.69;96.07
75692;BME280;64307;52.508;6.090;2023-03-01T04:50:04;103149.72;;;-0.74;96.27
75692;BME280;64307;52.508;6.090;2023-03-01T04:52:30;103143.63;;;-0.81;95.77
75692;BME280;64307;52.508;6.090;2023-03-01T04:54:56;103140.34;;;-0.78;94.97
75692;BME280;64307;52.508;6.090;2023-03-01T04:57:22;103130.22;;;-0.82;95.05
75692;BME280;64307;52.508;6.090;2023-03-01T04:59:48;103135.19;;;-0.74;94.64
75692;BME280;64307;52.508;6.090;2023-03-01T05:02:13;103131.63;;;-0.75;94.17
75692;BME280;64307;52.508;6.090;2023-03-01T05:04:38;103117.06;;;-0.91;94.45
75692;BME280;64307;52.508;6.090;2023-03-01T05:07:04;103130.81;;;-0.75;94.95
75692;BME280;64307;52.508;6.090;2023-03-01T05:09:29;103125.31;;;-0.80;94.46
75692;BME280;64307;52.508;6.090;2023-03-01T05:11:54;103124.19;;;-0.85;95.47
75692;BME280;64307;52.508;6.090;2023-03-01T05:14:20;103121.75;;;-0.81;94.99
75692;BME280;64307;52.508;6.090;2023-03-01T05:16:45;103113.81;;;-0.77;94.75
75692;BME280;64307;52.508;6.090;2023-03-01T05:19:12;103118.97;;;-0.86;94.19
75692;BME280;64307;52.508;6.090;2023-03-01T05:21:40;103108.03;;;-0.91;94.82
75692;BME280;64307;52.508;6.090;2023-03-01T05:24:26;103111.09;;;-0.77;94.48
75692;BME280;64307;52.508;6.090;2023-03-01T05:26:52;103103.94;;;-0.84;94.18
75692;BME280;64307;52.508;6.090;2023-03-01T05:29:23;103107.75;;;-0.90;94.65
75692;BME280;64307;52.508;6.090;2023-03-01T05:31:56;103100.59;;;-0.96;94.38
75692;BME280;64307;52.508;6.090;2023-03-01T05:34:27;103097.91;;;-0.91;94.70
75692;BME280;64307;52.508;6.090;2023-03-01T05:36:53;103104.44;;;-0.92;94.93
75692;BME280;64307;52.508;6.090;2023-03-01T05:39:24;103104.44;;;-0.97;95.00
75692;BME280;64307;52.508;6.090;2023-03-01T05:41:58;103110.19;;;-0.93;95.17
75692;BME280;64307;52.508;6.090;2023-03-01T05:44:24;103104.44;;;-0.97;95.20
75692;BME280;64307;52.508;6.090;2023-03-01T05:46:50;103092.13;;;-0.94;94.58
75692;BME280;64307;52.508;6.090;2023-03-01T05:49:16;103087.94;;;-1.07;94.29
75692;BME280;64307;52.508;6.090;2023-03-01T05:51:43;103084.97;;;-1.05;94.15
75692;BME280;64307;52.508;6.090;2023-03-01T05:54:12;103075.94;;;-1.06;94.61
75692;BME280;64307;52.508;6.090;2023-03-01T05:56:37;103084.41;;;-1.07;94.56
75692;BME280;64307;52.508;6.090;2023-03-01T05:59:03;103086.53;;;-1.19;94.15
75692;BME280;64307;52.508;6.090;2023-03-01T06:01:33;103090.53;;;-1.32;93.46
75692;BME280;64307;52.508;6.090;2023-03-01T06:03:59;103093.78;;;-1.35;94.10
75692;BME280;64307;52.508;6.090;2023-03-01T06:06:25;103097.06;;;-1.33;94.14
75692;BME280;64307;52.508;6.090;2023-03-01T06:08:51;103095.78;;;-1.25;94.23
75692;BME280;64307;52.508;6.090;2023-03-01T06:11:16;103102.03;;;-1.25;93.28
75692;BME280;64307;52.508;6.090;2023-03-01T06:13:43;103097.41;;;-1.24;93.84
75692;BME280;64307;52.508;6.090;2023-03-01T06:16:09;103090.88;;;-1.23;93.60
75692;BME280;64307;52.508;6.090;2023-03-01T06:18:35;103087.31;;;-1.24;93.09
75692;BME280;64307;52.508;6.090;2023-03-01T06:21:01;103090.66;;;-1.12;92.64
75692;BME280;64307;52.508;6.090;2023-03-01T06:23:26;103077.78;;;-1.16;92.74
75692;BME280;64307;52.508;6.090;2023-03-01T06:25:52;103086.28;;;-1.13;92.45
75692;BME280;64307;52.508;6.090;2023-03-01T06:28:17;103093.34;;;-1.22;93.34
75692;BME280;64307;52.508;6.090;2023-03-01T06:30:43;103089.69;;;-1.32;94.11
75692;BME280;64307;52.508;6.090;2023-03-01T06:33:08;103079.66;;;-1.22;94.14
75692;BME280;64307;52.508;6.090;2023-03-01T06:35:33;103092.28;;;-1.11;93.38
75692;BME280;64307;52.508;6.090;2023-03-01T06:38:01;103089.09;;;-1.03;92.29
75692;BME280;64307;52.508;6.090;2023-03-01T06:40:27;103095.69;;;-0.94;92.94
75692;BME280;64307;52.508;6.090;2023-03-01T06:42:52;103092.38;;;-1.01;92.84
75692;BME280;64307;52.508;6.090;2023-03-01T06:45:19;103099.50;;;-1.00;93.00
75692;BME280;64307;52.508;6.090;2023-03-01T06:47:44;103100.31;;;-0.99;93.52
75692;BME280;64307;52.508;6.090;2023-03-01T06:50:10;103089.31;;;-1.09;93.67
75692;BME280;64307;52.508;6.090;2023-03-01T06:52:36;103100.31;;;-0.99;93.08
75692;BME280;64307;52.508;6.090;2023-03-01T06:55:02;103106.06;;;-0.96;93.09
75692;BME280;64307;52.508;6.090;2023-03-01T06:57:28;103118.91;;;-0.96;93.34
75692;BME280;64307;52.508;6.090;2023-03-01T06:59:55;103110.44;;;-1.00;93.02
75692;BME280;64307;52.508;6.090;2023-03-01T07:02:20;103112.09;;;-0.99;92.90
75692;BME280;64307;52.508;6.090;2023-03-01T07:04:45;103106.91;;;-0.95;93.22
75692;BME280;64307;52.508;6.090;2023-03-01T07:07:11;103119.28;;;-0.82;92.69
75692;BME280;64307;52.508;6.090;2023-03-01T07:09:36;103110.78;;;-0.86;92.32
75692;BME280;64307;52.508;6.090;2023-03-01T07:12:02;103116.94;;;-0.59;91.94
75692;BME280;64307;52.508;6.090;2023-03-01T07:14:27;103116.09;;;-0.59;91.84
75692;BME280;64307;52.508;6.090;2023-03-01T07:16:53;103117.31;;;-0.35;91.40
75692;BME280;64307;52.508;6.090;2023-03-01T07:19:20;103114.06;;;-0.27;90.70
75692;BME280;64307;52.508;6.090;2023-03-01T07:21:46;103107.25;;;-0.20;90.86
75692;BME280;64307;52.508;6.090;2023-03-01T07:24:12;103115.16;;;-0.28;90.17
75692;BME280;64307;52.508;6.090;2023-03-01T07:26:37;103110.50;;;-0.28;90.37
75692;BME280;64307;52.508;6.090;2023-03-01T07:29:05;103120.06;;;-0.30;90.20
75692;BME280;64307;52.508;6.090;2023-03-01T07:31:31;103123.94;;;-0.21;89.86
75692;BME280;64307;52.508;6.090;2023-03-01T07:33:56;103129.41;;;-0.21;89.58
75692;BME280;64307;52.508;6.090;2023-03-01T07:36:22;103118.78;;;-0.08;89.35
75692;BME280;64307;52.508;6.090;2023-03-01T07:38:48;103120.22;;;0.30;88.22
75692;BME280;64307;52.508;6.090;2023-03-01T07:41:13;103114.97;;;1.88;82.44
75692;BME280;64307;52.508;6.090;2023-03-01T07:43:39;103114.69;;;4.09;72.82
75692;BME280;64307;52.508;6.090;2023-03-01T07:46:04;103105.78;;;5.27;68.38
75692;BME280;64307;52.508;6.090;2023-03-01T07:48:32;103110.69;;;6.56;63.48
75692;BME280;64307;52.508;6.090;2023-03-01T07:51:01;103115.81;;;8.37;56.05
75692;BME280;64307;52.508;6.090;2023-03-01T07:53:27;103101.63;;;9.85;50.94
75692;BME280;64307;52.508;6.090;2023-03-01T07:56:10;103110.31;;;10.54;47.80
75692;BME280;64307;52.508;6.090;2023-03-01T07:58:37;103107.16;;;11.57;44.83
75692;BME280;64307;52.508;6.090;2023-03-01T08:01:07;103107.66;;;11.96;43.77
75692;BME280;64307;52.508;6.090;2023-03-01T08:03:33;103106.94;;;13.37;40.42
75692;BME280;64307;52.508;6.090;2023-03-01T08:06:01;103101.72;;;13.36;40.01
75692;BME280;64307;52.508;6.090;2023-03-01T08:08:26;103104.59;;;13.70;38.08
75692;BME280;64307;52.508;6.090;2023-03-01T08:10:52;103094.47;;;15.15;36.54
75692;BME280;64307;52.508;6.090;2023-03-01T08:13:17;103092.69;;;16.01;34.81
75692;BME280;64307;52.508;6.090;2023-03-01T08:15:47;103087.69;;;15.16;35.41
75692;BME280;64307;52.508;6.090;2023-03-01T08:18:13;103086.16;;;14.77;35.20
75692;BME280;64307;52.508;6.090;2023-03-01T08:20:38;103076.69;;;16.31;32.38
75692;BME280;64307;52.508;6.090;2023-03-01T08:23:03;103084.75;;;14.48;35.00
75692;BME280;64307;52.508;6.090;2023-03-01T08:25:29;103079.66;;;14.54;35.52
75692;BME280;64307;52.508;6.090;2023-03-01T08:27:54;103073.09;;;14.46;35.90
75692;BME280;64307;52.508;6.090;2023-03-01T08:30:19;103062.03;;;15.40;34.67
75692;BME280;64307;52.508;6.090;2023-03-01T08:32:45;103065.34;;;14.59;34.88
75692;BME280;64307;52.508;6.090;2023-03-01T08:35:10;103078.59;;;12.24;39.48
75692;BME280;64307;52.508;6.090;2023-03-01T08:37:36;103075.75;;;11.97;40.79
75692;BME280;64307;52.508;6.090;2023-03-01T08:40:01;103076.81;;;11.80;40.48
75692;BME280;64307;52.508;6.090;2023-03-01T08:42:28;103067.56;;;12.71;39.38
75692;BME280;64307;52.508;6.090;2023-03-01T08:44:54;103073.72;;;13.36;38.23
75692;BME280;64307;52.508;6.090;2023-03-01T08:47:19;103070.19;;;14.24;35.79
75692;BME280;64307;52.508;6.090;2023-03-01T08:49:44;103075.06;;;17.00;31.27
75692;BME280;64307;52.508;6.090;2023-03-01T08:52:09;103065.88;;;17.03;30.66
75692;BME280;64307;52.508;6.090;2023-03-01T08:54:35;103052.53;;;18.02;29.34
75692;BME280;64307;52.508;6.090;2023-03-01T08:57:03;103059.75;;;18.71;28.51
75692;BME280;64307;52.508;6.090;2023-03-01T08:59:28;103044.47;;;19.08;27.57
75692;BME280;64307;52.508;6.090;2023-03-01T09:01:55;103063.94;;;17.14;29.68
75692;BME280;64307;52.508;6.090;2023-03-01T09:04:20;103061.06;;;18.09;28.46
75692;BME280;64307;52.508;6.090;2023-03-01T09:06:45;103057.16;;;17.66;28.20
75692;BME280;64307;52.508;6.090;2023-03-01T09:09:17;103073.94;;;19.07;26.33
75692;BME280;64307;52.508;6.090;2023-03-01T09:11:44;103069.53;;;19.34;25.99
75692;BME280;64307;52.508;6.090;2023-03-01T09:14:11;103070.75;;;19.61;25.74
75692;BME280;64307;52.508;6.090;2023-03-01T09:16:37;103069.06;;;18.86;25.83
75692;BME280;64307;52.508;6.090;2023-03-01T09:19:04;103063.88;;;19.44;25.30
75692;BME280;64307;52.508;6.090;2023-03-01T09:21:30;103053.63;;;20.24;24.72
75692;BME280;64307;52.508;6.090;2023-03-01T09:23:56;103053.97;;;20.40;24.69
75692;BME280;64307;52.508;6.090;2023-03-01T09:26:23;103057.28;;;21.01;23.51
75692;BME280;64307;52.508;6.090;2023-03-01T09:28:50;103058.56;;;19.85;23.77
75692;BME280;64307;52.508;6.090;2023-03-01T09:31:17;103042.25;;;20.46;23.84
75692;BME280;64307;52.508;6.090;2023-03-01T09:33:48;103049.31;;;18.00;26.37
75692;BME280;64307;52.508;6.090;2023-03-01T09:36:17;103043.09;;;18.45;26.02
75692;BME280;64307;52.508;6.090;2023-03-01T09:38:43;103041.91;;;18.46;25.85
75692;BME280;64307;52.508;6.090;2023-03-01T09:44:01;103043.66;;;19.21;25.02
75692;BME280;64307;52.508;6.090;2023-03-01T09:46:33;103039.94;;;16.87;28.05
75692;BME280;64307;52.508;6.090;2023-03-01T09:49:11;103048.16;;;16.03;29.67
75692;BME280;64307;52.508;6.090;2023-03-01T09:51:37;103046.91;;;15.71;30.29
75692;BME280;64307;52.508;6.090;2023-03-01T09:54:04;103024.75;;;17.43;28.58
75692;BME280;64307;52.508;6.090;2023-03-01T09:56:39;103032.09;;;15.74;29.51
75692;BME280;64307;52.508;6.090;2023-03-01T10:05:21;103029.53;;;19.32;26.01
75692;BME280;64307;52.508;6.090;2023-03-01T10:08:22;103024.81;;;17.02;27.17
75692;BME280;64307;52.508;6.090;2023-03-01T10:10:51;103006.03;;;19.98;24.78
75692;BME280;64307;52.508;6.090;2023-03-01T10:13:36;103010.56;;;21.23;22.67
75692;BME280;64307;52.508;6.090;2023-03-01T10:16:13;103022.03;;;18.18;25.80
75692;BME280;64307;52.508;6.090;2023-03-01T10:18:40;103014.22;;;19.08;25.25
75692;BME280;64307;52.508;6.090;2023-03-01T10:21:15;103017.88;;;19.33;25.54
75692;BME280;64307;52.508;6.090;2023-03-01T10:23:42;103009.78;;;19.53;24.78
75692;BME280;64307;52.508;6.090;2023-03-01T10:29:01;103007.69;;;18.58;25.11
75692;BME280;64307;52.508;6.090;2023-03-01T10:31:43;103017.03;;;19.19;26.00
75692;BME280;64307;52.508;6.090;2023-03-01T10:34:12;103025.09;;;16.50;27.59
75692;BME280;64307;52.508;6.090;2023-03-01T10:36:39;103016.72;;;17.45;27.06
75692;BME280;64307;52.508;6.090;2023-03-01T10:39:13;103022.72;;;15.93;28.53
75692;BME280;64307;52.508;6.090;2023-03-01T10:42:28;103017.09;;;14.50;31.11
75692;BME280;64307;52.508;6.090;2023-03-01T10:44:57;103011.31;;;15.52;29.33
75692;BME280;64307;52.508;6.090;2023-03-01T10:47:26;103007.00;;;16.51;28.13
75692;BME280;64307;52.508;6.090;2023-03-01T10:49:56;102997.91;;;15.42;29.28
75692;BME280;64307;52.508;6.090;2023-03-01T10:52:26;103006.09;;;14.83;30.44
75692;BME280;64307;52.508;6.090;2023-03-01T10:55:39;103006.28;;;12.78;33.31
75692;BME280;64307;52.508;6.090;2023-03-01T10:57:40;103006.19;;;14.45;32.21
75692;BME280;64307;52.508;6.090;2023-03-01T11:05:25;103010.00;;;9.80;40.64
75692;BME280;64307;52.508;6.090;2023-03-01T11:07:55;103004.44;;;10.01;41.11
75692;BME280;64307;52.508;6.090;2023-03-01T11:10:23;103004.41;;;11.23;38.61
75692;BME280;64307;52.508;6.090;2023-03-01T11:12:50;102996.97;;;11.15;38.66
75692;BME280;64307;52.508;6.090;2023-03-01T11:15:34;102979.03;;;10.03;40.17
75692;BME280;64307;52.508;6.090;2023-03-01T11:18:00;102981.66;;;10.40;38.96
75692;BME280;64307;52.508;6.090;2023-03-01T11:20:32;102977.13;;;10.15;39.02
75692;BME280;64307;52.508;6.090;2023-03-01T11:23:03;102969.53;;;9.62;39.93
75692;BME280;64307;52.508;6.090;2023-03-01T11:25:34;102968.88;;;10.51;39.68
75692;BME280;64307;52.508;6.090;2023-03-01T11:28:04;102961.03;;;10.00;39.76
75692;BME280;64307;52.508;6.090;2023-03-01T11:30:53;102968.44;;;9.75;39.62
75692;BME280;64307;52.508;6.090;2023-03-01T11:33:29;102976.19;;;9.70;40.62
75692;BME280;64307;52.508;6.090;2023-03-01T11:36:15;102968.72;;;9.62;40.08
75692;BME280;64307;52.508;6.090;2023-03-01T11:38:42;102972.84;;;9.97;40.88
75692;BME280;64307;52.508;6.090;2023-03-01T11:41:15;102981.94;;;9.65;40.74
75692;BME280;64307;52.508;6.090;2023-03-01T11:43:52;102970.53;;;10.52;40.13
75692;BME280;64307;52.508;6.090;2023-03-01T11:54:46;102966.13;;;9.57;42.05
75692;BME280;64307;52.508;6.090;2023-03-01T11:57:33;102964.66;;;9.59;43.35
75692;BME280;64307;52.508;6.090;2023-03-01T12:05:41;102958.19;;;9.18;42.78
75692;BME280;64307;52.508;6.090;2023-03-01T12:11:00;102955.81;;;8.78;43.75
75692;BME280;64307;52.508;6.090;2023-03-01T12:13:47;102955.69;;;9.54;42.07
75692;BME280;64307;52.508;6.090;2023-03-01T12:36:18;102923.56;;;8.86;43.46
75692;BME280;64307;52.508;6.090;2023-03-01T12:41:43;102913.47;;;9.11;43.37
75692;BME280;64307;52.508;6.090;2023-03-01T12:47:47;102897.81;;;9.27;43.50
75692;BME280;64307;52.508;6.090;2023-03-01T12:53:03;102901.28;;;8.65;43.56
75692;BME280;64307;52.508;6.090;2023-03-01T12:55:31;102891.84;;;8.87;44.68
75692;BME280;64307;52.508;6.090;2023-03-01T12:58:24;102899.47;;;8.98;44.19
75692;BME280;64307;52.508;6.090;2023-03-01T13:06:19;102872.34;;;8.20;45.58
75692;BME280;64307;52.508;6.090;2023-03-01T13:09:02;102875.66;;;7.96;46.54
75692;BME280;64307;52.508;6.090;2023-03-01T13:11:32;102865.72;;;8.04;45.60
75692;BME280;64307;52.508;6.090;2023-03-01T13:16:51;102863.56;;;8.01;46.00
75692;BME280;64307;52.508;6.090;2023-03-01T13:19:25;102869.94;;;8.27;46.63
75692;BME280;64307;52.508;6.090;2023-03-01T13:21:53;102887.41;;;8.02;46.52
75692;BME280;64307;52.508;6.090;2023-03-01T13:24:39;102877.03;;;7.65;45.90
75692;BME280;64307;52.508;6.090;2023-03-01T13:32:28;102847.50;;;7.77;45.78
75692;BME280;64307;52.508;6.090;2023-03-01T13:34:56;102850.50;;;8.56;45.53
75692;BME280;64307;52.508;6.090;2023-03-01T13:37:30;102859.78;;;8.22;45.36
75692;BME280;64307;52.508;6.090;2023-03-01T13:40:01;102848.31;;;7.69;45.81
75692;BME280;64307;52.508;6.090;2023-03-01T13:42:49;102852.47;;;8.09;45.58
75692;BME280;64307;52.508;6.090;2023-03-01T13:45:20;102846.50;;;7.82;45.55
75692;BME280;64307;52.508;6.090;2023-03-01T13:47:49;102841.13;;;7.77;44.91
75692;BME280;64307;52.508;6.090;2023-03-01T13:50:22;102835.53;;;7.94;45.66
75692;BME280;64307;52.508;6.090;2023-03-01T13:53:17;102834.59;;;7.81;45.85
75692;BME280;64307;52.508;6.090;2023-03-01T13:55:46;102824.97;;;7.79;45.47
75692;BME280;64307;52.508;6.090;2023-03-01T13:58:23;102824.44;;;7.94;45.03
75692;BME280;64307;52.508;6.090;2023-03-01T14:01:04;102838.22;;;7.65;45.69
75692;BME280;64307;52.508;6.090;2023-03-01T14:03:32;102827.59;;;7.58;45.58
75692;BME280;64307;52.508;6.090;2023-03-01T14:08:26;102815.53;;;7.63;47.21
75692;BME280;64307;52.508;6.090;2023-03-01T14:16:23;102791.22;;;7.60;46.43
75692;BME280;64307;52.508;6.090;2023-03-01T14:18:56;102791.34;;;7.80;46.28
75692;BME280;64307;52.508;6.090;2023-03-01T14:21:26;102785.19;;;7.66;47.10
75692;BME280;64307;52.508;6.090;2023-03-01T14:23:52;102790.56;;;7.71;47.05
75692;BME280;64307;52.508;6.090;2023-03-01T14:26:21;102785.16;;;7.83;47.16
75692;BME280;64307;52.508;6.090;2023-03-01T14:28:47;102784.47;;;7.86;47.32
75692;BME280;64307;52.508;6.090;2023-03-01T14:31:35;102779.72;;;7.95;47.02
75692;BME280;64307;52.508;6.090;2023-03-01T14:34:01;102778.72;;;8.00;47.57
75692;BME280;64307;52.508;6.090;2023-03-01T14:36:29;102780.09;;;7.85;47.90
75692;BME280;64307;52.508;6.090;2023-03-01T14:38:55;102761.88;;;8.05;48.85
75692;BME280;64307;52.508;6.090;2023-03-01T14:41:23;102735.38;;;7.87;48.30
75692;BME280;64307;52.508;6.090;2023-03-01T14:43:54;102748.16;;;7.71;49.23
75692;BME280;64307;52.508;6.090;2023-03-01T14:46:33;102739.91;;;7.91;48.70
75692;BME280;64307;52.508;6.090;2023-03-01T14:49:22;102745.81;;;7.90;48.50
75692;BME280;64307;52.508;6.090;2023-03-01T14:52:06;102745.34;;;7.79;48.27
75692;BME280;64307;52.508;6.090;2023-03-01T14:54:50;102747.63;;;7.86;49.09
75692;BME280;64307;52.508;6.090;2023-03-01T14:57:19;102742.34;;;7.93;49.46
75692;BME280;64307;52.508;6.090;2023-03-01T14:59:49;102747.06;;;8.01;48.73
75692;BME280;64307;52.508;6.090;2023-03-01T15:02:19;102733.56;;;7.91;48.68
75692;BME280;64307;52.508;6.090;2023-03-01T15:04:51;102726.94;;;7.75;49.42
75692;BME280;64307;52.508;6.090;2023-03-01T15:07:17;102735.78;;;7.60;48.54
75692;BME280;64307;52.508;6.090;2023-03-01T15:09:44;102732.00;;;7.73;48.48